sensor_id;sensor_type;location;lat;lon;timestamp;P1;durP1;ratioP1;P2;durP2;ratioP2
4268;SDS011;2148;48.554;7.834;2023-08-21T00:02:19;12.30;;;11.23;;
4268;SDS011;2148;48.554;7.834;2023-08-21T00:04:44;12.32;;;11.35;;
4268;SDS011;2148;48.554;7.834;2023-08-21T00:07:10;12.82;;;11.82;;
4268;SDS011;2148;48.554;7.834;2023-08-21T00:09:36;12.45;;;11.50;;
4268;SDS011;2148;48.554;7.834;2023-08-21T00:12:01;12.60;;;11.60;;
4268;SDS011;2148;48.554;7.834;2023-08-21T00:14:27;12.73;;;11.68;;
4268;SDS011;2148;48.554;7.834;2023-08-21T00:16:52;12.50;;;11.45;;
4268;SDS011;2148;48.554;7.834;2023-08-21T00:19:17;12.98;;;11.88;;
4268;SDS011;2148;48.554;7.834;2023-08-21T00:21:43;12.50;;;11.50;;
4268;SDS011;2148;48.554;7.834;2023-08-21T00:24:08;12.65;;;11.75;;
4268;SDS011;2148;48.554;7.834;2023-08-21T00:26:33;13.10;;;11.98;;
4268;SDS011;2148;48.554;7.834;2023-08-21T00:28:58;12.40;;;11.60;;
4268;SDS011;2148;48.554;7.834;2023-08-21T00:31:24;12.20;;;11.13;;
4268;SDS011;2148;48.554;7.834;2023-08-21T00:33:49;12.13;;;11.20;;
4268;SDS011;2148;48.554;7.834;2023-08-21T00:36:14;11.57;;;10.75;;
4268;SDS011;2148;48.554;7.834;2023-08-21T00:38:39;11.98;;;10.90;;
4268;SDS011;2148;48.554;7.834;2023-08-21T00:41:05;11.23;;;10.50;;
4268;SDS011;2148;48.554;7.834;2023-08-21T00:43:30;11.63;;;10.93;;
4268;SDS011;2148;48.554;7.834;2023-08-21T00:45:55;12.20;;;11.30;;
4268;SDS011;2148;48.554;7.834;2023-08-21T00:48:21;12.07;;;11.15;;
4268;SDS011;2148;48.554;7.834;2023-08-21T00:50:46;11.88;;;10.98;;
4268;SDS011;2148;48.554;7.834;2023-08-21T00:53:11;12.20;;;11.30;;
4268;SDS011;2148;48.554;7.834;2023-08-21T00:55:37;12.73;;;11.60;;
4268;SDS011;2148;48.554;7.834;2023-08-21T00:58:03;12.05;;;11.20;;
4268;SDS011;2148;48.554;7.834;2023-08-21T01:00:30;12.45;;;11.52;;
4268;SDS011;2148;48.554;7.834;2023-08-21T01:02:55;11.60;;;10.82;;
4268;SDS011;2148;48.554;7.834;2023-08-21T01:05:21;12.43;;;11.35;;
4268;SDS011;2148;48.554;7.834;2023-08-21T01:07:52;12.40;;;11.48;;
4268;SDS011;2148;48.554;7.834;2023-08-21T01:13:02;12.23;;;11.40;;
4268;SDS011;2148;48.554;7.834;2023-08-21T01:15:31;12.25;;;11.25;;
4268;SDS011;2148;48.554;7.834;2023-08-21T01:17:57;13.07;;;12.00;;
4268;SDS011;2148;48.554;7.834;2023-08-21T01:20:24;12.48;;;11.50;;
4268;SDS011;2148;48.554;7.834;2023-08-21T01:22:49;12.15;;;11.05;;
4268;SDS011;2148;48.554;7.834;2023-08-21T01:25:15;12.63;;;11.48;;
4268;SDS011;2148;48.554;7.834;2023-08-21T01:27:42;11.85;;;11.05;;
4268;SDS011;2148;48.554;7.834;2023-08-21T01:30:09;11.88;;;11.05;;
4268;SDS011;2148;48.554;7.834;2023-08-21T01:35:07;12.27;;;11.27;;
4268;SDS011;2148;48.554;7.834;2023-08-21T01:37:34;11.65;;;10.65;;
4268;SDS011;2148;48.554;7.834;2023-08-21T01:40:00;11.68;;;10.88;;
4268;SDS011;2148;48.554;7.834;2023-08-21T01:42:25;11.88;;;11.07;;
4268;SDS011;2148;48.554;7.834;2023-08-21T01:44:51;11.25;;;10.27;;
4268;SDS011;2148;48.554;7.834;2023-08-21T01:47:16;11.85;;;10.85;;
4268;SDS011;2148;48.554;7.834;2023-08-21T01:49:41;11.77;;;10.68;;
4268;SDS011;2148;48.554;7.834;2023-08-21T01:52:06;11.23;;;10.43;;
4268;SDS011;2148;48.554;7.834;2023-08-21T01:54:32;11.50;;;10.70;;
4268;SDS011;2148;48.554;7.834;2023-08-21T01:56:57;11.35;;;10.57;;
4268;SDS011;2148;48.554;7.834;2023-08-21T01:59:23;11.75;;;10.85;;
4268;SDS011;2148;48.554;7.834;2023-08-21T02:01:49;11.07;;;10.35;;
4268;SDS011;2148;48.554;7.834;2023-08-21T02:04:14;11.23;;;10.52;;
4268;SDS011;2148;48.554;7.834;2023-08-21T02:06:39;12.38;;;11.38;;
4268;SDS011;2148;48.554;7.834;2023-08-21T02:09:04;12.13;;;10.93;;
4268;SDS011;2148;48.554;7.834;2023-08-21T02:11:30;11.60;;;10.55;;
4268;SDS011;2148;48.554;7.834;2023-08-21T02:13:55;11.65;;;10.63;;
4268;SDS011;2148;48.554;7.834;2023-08-21T02:16:20;11.63;;;10.60;;
4268;SDS011;2148;48.554;7.834;2023-08-21T02:18:46;11.90;;;10.85;;
4268;SDS011;2148;48.554;7.834;2023-08-21T02:21:12;11.55;;;10.75;;
4268;SDS011;2148;48.554;7.834;2023-08-21T02:23:37;11.20;;;10.30;;
4268;SDS011;2148;48.554;7.834;2023-08-21T02:26:02;11.60;;;10.70;;
4268;SDS011;2148;48.554;7.834;2023-08-21T02:28:28;11.70;;;10.77;;
4268;SDS011;2148;48.554;7.834;2023-08-21T02:30:53;11.65;;;10.73;;
4268;SDS011;2148;48.554;7.834;2023-08-21T02:33:18;11.52;;;10.80;;
4268;SDS011;2148;48.554;7.834;2023-08-21T02:35:43;10.98;;;10.18;;
4268;SDS011;2148;48.554;7.834;2023-08-21T02:38:09;10.63;;;10.02;;
4268;SDS011;2148;48.554;7.834;2023-08-21T02:40:34;11.25;;;10.25;;
4268;SDS011;2148;48.554;7.834;2023-08-21T02:42:59;11.80;;;10.80;;
4268;SDS011;2148;48.554;7.834;2023-08-21T02:45:24;12.13;;;11.13;;
4268;SDS011;2148;48.554;7.834;2023-08-21T02:47:50;11.82;;;10.68;;
4268;SDS011;2148;48.554;7.834;2023-08-21T02:50:15;11.02;;;10.13;;
4268;SDS011;2148;48.554;7.834;2023-08-21T02:52:40;11.27;;;10.43;;
4268;SDS011;2148;48.554;7.834;2023-08-21T02:55:06;11.18;;;10.48;;
4268;SDS011;2148;48.554;7.834;2023-08-21T02:57:32;11.70;;;10.60;;
4268;SDS011;2148;48.554;7.834;2023-08-21T02:59:57;10.75;;;10.05;;
4268;SDS011;2148;48.554;7.834;2023-08-21T03:02:22;11.25;;;10.48;;
4268;SDS011;2148;48.554;7.834;2023-08-21T03:04:48;11.88;;;10.98;;
4268;SDS011;2148;48.554;7.834;2023-08-21T03:07:14;12.10;;;11.10;;
4268;SDS011;2148;48.554;7.834;2023-08-21T03:09:40;11.70;;;10.75;;
4268;SDS011;2148;48.554;7.834;2023-08-21T03:12:05;10.55;;;9.85;;
4268;SDS011;2148;48.554;7.834;2023-08-21T03:14:32;12.90;;;11.88;;
4268;SDS011;2148;48.554;7.834;2023-08-21T03:16:57;11.77;;;10.63;;
4268;SDS011;2148;48.554;7.834;2023-08-21T03:19:22;12.15;;;11.25;;
4268;SDS011;2148;48.554;7.834;2023-08-21T03:21:47;11.10;;;10.13;;
4268;SDS011;2148;48.554;7.834;2023-08-21T03:24:13;12.13;;;11.23;;
4268;SDS011;2148;48.554;7.834;2023-08-21T03:26:38;10.52;;;9.82;;
4268;SDS011;2148;48.554;7.834;2023-08-21T03:29:03;11.90;;;11.15;;
4268;SDS011;2148;48.554;7.834;2023-08-21T03:31:29;12.05;;;11.07;;
4268;SDS011;2148;48.554;7.834;2023-08-21T03:33:54;11.60;;;10.63;;
4268;SDS011;2148;48.554;7.834;2023-08-21T03:36:19;11.85;;;10.88;;
4268;SDS011;2148;48.554;7.834;2023-08-21T03:38:45;10.98;;;10.25;;
4268;SDS011;2148;48.554;7.834;2023-08-21T03:41:11;11.70;;;10.75;;
4268;SDS011;2148;48.554;7.834;2023-08-21T03:43:36;12.07;;;11.13;;
4268;SDS011;2148;48.554;7.834;2023-08-21T03:46:01;11.95;;;10.90;;
4268;SDS011;2148;48.554;7.834;2023-08-21T03:48:26;11.32;;;10.20;;
4268;SDS011;2148;48.554;7.834;2023-08-21T03:50:52;11.05;;;10.25;;
4268;SDS011;2148;48.554;7.834;2023-08-21T03:53:17;10.82;;;10.13;;
4268;SDS011;2148;48.554;7.834;2023-08-21T03:55:43;11.57;;;10.63;;
4268;SDS011;2148;48.554;7.834;2023-08-21T03:58:08;11.15;;;10.27;;
4268;SDS011;2148;48.554;7.834;2023-08-21T04:00:33;11.18;;;10.18;;
4268;SDS011;2148;48.554;7.834;2023-08-21T04:02:58;11.50;;;10.63;;
4268;SDS011;2148;48.554;7.834;2023-08-21T04:05:24;11.43;;;10.50;;
4268;SDS011;2148;48.554;7.834;2023-08-21T04:07:49;11.27;;;10.52;;
4268;SDS011;2148;48.554;7.834;2023-08-21T04:10:14;11.50;;;10.60;;
4268;SDS011;2148;48.554;7.834;2023-08-21T04:12:41;11.73;;;10.63;;
4268;SDS011;2148;48.554;7.834;2023-08-21T04:15:06;11.70;;;10.82;;
4268;SDS011;2148;48.554;7.834;2023-08-21T04:17:32;11.63;;;10.73;;
4268;SDS011;2148;48.554;7.834;2023-08-21T04:19:57;11.43;;;10.63;;
4268;SDS011;2148;48.554;7.834;2023-08-21T04:22:22;10.95;;;10.18;;
4268;SDS011;2148;48.554;7.834;2023-08-21T04:24:48;11.95;;;10.95;;
4268;SDS011;2148;48.554;7.834;2023-08-21T04:27:13;11.07;;;10.27;;
4268;SDS011;2148;48.554;7.834;2023-08-21T04:29:39;11.60;;;10.67;;
4268;SDS011;2148;48.554;7.834;2023-08-21T04:32:05;11.05;;;10.32;;
4268;SDS011;2148;48.554;7.834;2023-08-21T04:34:32;10.73;;;9.90;;
4268;SDS011;2148;48.554;7.834;2023-08-21T04:36:57;11.65;;;10.75;;
4268;SDS011;2148;48.554;7.834;2023-08-21T04:39:23;11.45;;;10.65;;
4268;SDS011;2148;48.554;7.834;2023-08-21T04:41:48;11.15;;;10.43;;
4268;SDS011;2148;48.554;7.834;2023-08-21T04:44:13;11.77;;;10.88;;
4268;SDS011;2148;48.554;7.834;2023-08-21T04:46:38;11.07;;;10.18;;
4268;SDS011;2148;48.554;7.834;2023-08-21T04:49:03;12.02;;;11.02;;
4268;SDS011;2148;48.554;7.834;2023-08-21T04:51:29;11.35;;;10.55;;
4268;SDS011;2148;48.554;7.834;2023-08-21T04:53:54;11.70;;;10.05;;
4268;SDS011;2148;48.554;7.834;2023-08-21T04:56:19;11.45;;;10.35;;
4268;SDS011;2148;48.554;7.834;2023-08-21T04:58:44;12.02;;;10.93;;
4268;SDS011;2148;48.554;7.834;2023-08-21T05:01:10;11.68;;;10.50;;
4268;SDS011;2148;48.554;7.834;2023-08-21T05:03:35;11.45;;;10.52;;
4268;SDS011;2148;48.554;7.834;2023-08-21T05:06:00;10.75;;;10.05;;
4268;SDS011;2148;48.554;7.834;2023-08-21T05:08:26;11.30;;;10.25;;
4268;SDS011;2148;48.554;7.834;2023-08-21T05:10:55;11.65;;;10.75;;
4268;SDS011;2148;48.554;7.834;2023-08-21T05:13:21;11.73;;;10.73;;
4268;SDS011;2148;48.554;7.834;2023-08-21T05:15:50;11.33;;;10.23;;
4268;SDS011;2148;48.554;7.834;2023-08-21T05:18:19;10.48;;;9.57;;
4268;SDS011;2148;48.554;7.834;2023-08-21T05:20:45;11.20;;;10.30;;
4268;SDS011;2148;48.554;7.834;2023-08-21T05:23:10;11.27;;;10.23;;
4268;SDS011;2148;48.554;7.834;2023-08-21T05:25:35;10.65;;;9.77;;
4268;SDS011;2148;48.554;7.834;2023-08-21T05:28:01;10.70;;;9.83;;
4268;SDS011;2148;48.554;7.834;2023-08-21T05:30:26;10.53;;;9.73;;
4268;SDS011;2148;48.554;7.834;2023-08-21T05:32:52;11.18;;;10.32;;
4268;SDS011;2148;48.554;7.834;2023-08-21T05:35:17;10.70;;;9.70;;
4268;SDS011;2148;48.554;7.834;2023-08-21T05:37:42;10.70;;;10.00;;
4268;SDS011;2148;48.554;7.834;2023-08-21T05:40:07;11.27;;;10.23;;
4268;SDS011;2148;48.554;7.834;2023-08-21T05:42:33;11.00;;;10.07;;
4268;SDS011;2148;48.554;7.834;2023-08-21T05:44:58;11.13;;;10.23;;
4268;SDS011;2148;48.554;7.834;2023-08-21T05:47:24;11.50;;;10.50;;
4268;SDS011;2148;48.554;7.834;2023-08-21T05:49:49;12.32;;;11.18;;
4268;SDS011;2148;48.554;7.834;2023-08-21T05:52:15;11.53;;;10.53;;
4268;SDS011;2148;48.554;7.834;2023-08-21T05:54:40;11.40;;;10.40;;
4268;SDS011;2148;48.554;7.834;2023-08-21T05:57:05;11.50;;;10.53;;
4268;SDS011;2148;48.554;7.834;2023-08-21T05:59:31;11.82;;;10.90;;
4268;SDS011;2148;48.554;7.834;2023-08-21T06:01:57;11.65;;;10.63;;
4268;SDS011;2148;48.554;7.834;2023-08-21T06:04:22;12.27;;;11.07;;
4268;SDS011;2148;48.554;7.834;2023-08-21T06:06:47;12.73;;;11.43;;
4268;SDS011;2148;48.554;7.834;2023-08-21T06:09:13;13.35;;;11.98;;
4268;SDS011;2148;48.554;7.834;2023-08-21T06:11:38;13.13;;;11.85;;
4268;SDS011;2148;48.554;7.834;2023-08-21T06:14:03;12.82;;;11.63;;
4268;SDS011;2148;48.554;7.834;2023-08-21T06:16:29;13.60;;;12.50;;
4268;SDS011;2148;48.554;7.834;2023-08-21T06:18:54;13.17;;;12.07;;
4268;SDS011;2148;48.554;7.834;2023-08-21T06:21:19;13.47;;;12.47;;
4268;SDS011;2148;48.554;7.834;2023-08-21T06:23:45;12.23;;;11.23;;
4268;SDS011;2148;48.554;7.834;2023-08-21T06:26:10;12.40;;;11.20;;
4268;SDS011;2148;48.554;7.834;2023-08-21T06:28:35;12.50;;;11.33;;
4268;SDS011;2148;48.554;7.834;2023-08-21T06:31:00;11.80;;;10.07;;
4268;SDS011;2148;48.554;7.834;2023-08-21T06:33:32;12.37;;;11.23;;
4268;SDS011;2148;48.554;7.834;2023-08-21T06:35:57;13.17;;;11.97;;
4268;SDS011;2148;48.554;7.834;2023-08-21T06:38:22;12.10;;;11.10;;
4268;SDS011;2148;48.554;7.834;2023-08-21T06:40:48;11.73;;;10.83;;
4268;SDS011;2148;48.554;7.834;2023-08-21T06:43:13;13.13;;;11.77;;
4268;SDS011;2148;48.554;7.834;2023-08-21T06:45:38;11.23;;;10.27;;
4268;SDS011;2148;48.554;7.834;2023-08-21T06:48:03;13.40;;;12.33;;
4268;SDS011;2148;48.554;7.834;2023-08-21T06:50:29;13.97;;;12.57;;
4268;SDS011;2148;48.554;7.834;2023-08-21T06:52:55;14.00;;;12.83;;
4268;SDS011;2148;48.554;7.834;2023-08-21T06:55:20;13.10;;;11.90;;
4268;SDS011;2148;48.554;7.834;2023-08-21T06:57:46;12.87;;;11.80;;
4268;SDS011;2148;48.554;7.834;2023-08-21T07:00:11;13.23;;;12.17;;
4268;SDS011;2148;48.554;7.834;2023-08-21T07:02:37;12.97;;;11.77;;
4268;SDS011;2148;48.554;7.834;2023-08-21T07:05:02;12.33;;;11.37;;
4268;SDS011;2148;48.554;7.834;2023-08-21T07:07:28;13.67;;;12.50;;
4268;SDS011;2148;48.554;7.834;2023-08-21T07:09:53;13.40;;;12.30;;
4268;SDS011;2148;48.554;7.834;2023-08-21T07:12:18;11.17;;;10.27;;
4268;SDS011;2148;48.554;7.834;2023-08-21T07:14:43;11.83;;;10.67;;
4268;SDS011;2148;48.554;7.834;2023-08-21T07:17:09;14.33;;;13.03;;
4268;SDS011;2148;48.554;7.834;2023-08-21T07:19:34;11.97;;;11.07;;
4268;SDS011;2148;48.554;7.834;2023-08-21T07:21:59;13.23;;;12.10;;
4268;SDS011;2148;48.554;7.834;2023-08-21T07:24:24;13.60;;;12.40;;
4268;SDS011;2148;48.554;7.834;2023-08-21T07:26:50;12.53;;;11.53;;
4268;SDS011;2148;48.554;7.834;2023-08-21T07:29:15;13.70;;;12.40;;
4268;SDS011;2148;48.554;7.834;2023-08-21T07:31:40;13.70;;;12.53;;
4268;SDS011;2148;48.554;7.834;2023-08-21T07:34:05;13.00;;;11.80;;
4268;SDS011;2148;48.554;7.834;2023-08-21T07:36:31;13.23;;;11.93;;
4268;SDS011;2148;48.554;7.834;2023-08-21T07:38:57;12.97;;;11.40;;
4268;SDS011;2148;48.554;7.834;2023-08-21T07:41:22;13.73;;;12.33;;
4268;SDS011;2148;48.554;7.834;2023-08-21T07:43:47;14.37;;;13.20;;
4268;SDS011;2148;48.554;7.834;2023-08-21T07:46:13;15.23;;;13.73;;
4268;SDS011;2148;48.554;7.834;2023-08-21T07:48:41;13.27;;;12.10;;
4268;SDS011;2148;48.554;7.834;2023-08-21T07:51:06;13.93;;;12.67;;
4268;SDS011;2148;48.554;7.834;2023-08-21T07:53:32;14.77;;;13.57;;
4268;SDS011;2148;48.554;7.834;2023-08-21T07:55:59;16.97;;;15.77;;
4268;SDS011;2148;48.554;7.834;2023-08-21T07:58:24;14.77;;;13.20;;
4268;SDS011;2148;48.554;7.834;2023-08-21T08:00:50;13.73;;;12.77;;
4268;SDS011;2148;48.554;7.834;2023-08-21T08:03:15;14.30;;;13.27;;
4268;SDS011;2148;48.554;7.834;2023-08-21T08:05:41;15.47;;;14.17;;
4268;SDS011;2148;48.554;7.834;2023-08-21T08:08:09;14.23;;;13.13;;
4268;SDS011;2148;48.554;7.834;2023-08-21T08:10:38;14.70;;;13.30;;
4268;SDS011;2148;48.554;7.834;2023-08-21T08:13:04;14.30;;;13.07;;
4268;SDS011;2148;48.554;7.834;2023-08-21T08:15:29;14.87;;;13.53;;
4268;SDS011;2148;48.554;7.834;2023-08-21T08:17:55;13.37;;;12.17;;
4268;SDS011;2148;48.554;7.834;2023-08-21T08:20:20;14.00;;;12.63;;
4268;SDS011;2148;48.554;7.834;2023-08-21T08:22:46;15.20;;;13.70;;
4268;SDS011;2148;48.554;7.834;2023-08-21T08:25:11;13.90;;;12.60;;
4268;SDS011;2148;48.554;7.834;2023-08-21T08:27:36;13.18;;;11.95;;
4268;SDS011;2148;48.554;7.834;2023-08-21T08:30:02;14.27;;;12.90;;
4268;SDS011;2148;48.554;7.834;2023-08-21T08:32:28;16.00;;;14.47;;
4268;SDS011;2148;48.554;7.834;2023-08-21T08:34:53;16.10;;;14.63;;
4268;SDS011;2148;48.554;7.834;2023-08-21T08:37:20;15.30;;;13.93;;
4268;SDS011;2148;48.554;7.834;2023-08-21T08:39:48;13.60;;;12.50;;
4268;SDS011;2148;48.554;7.834;2023-08-21T08:42:13;15.17;;;13.80;;
4268;SDS011;2148;48.554;7.834;2023-08-21T08:44:39;14.93;;;13.53;;
4268;SDS011;2148;48.554;7.834;2023-08-21T08:47:10;15.20;;;13.93;;
4268;SDS011;2148;48.554;7.834;2023-08-21T08:49:36;14.30;;;12.93;;
4268;SDS011;2148;48.554;7.834;2023-08-21T08:52:02;13.50;;;12.40;;
4268;SDS011;2148;48.554;7.834;2023-08-21T08:54:29;15.50;;;14.30;;
4268;SDS011;2148;48.554;7.834;2023-08-21T08:56:55;15.33;;;13.93;;
4268;SDS011;2148;48.554;7.834;2023-08-21T08:59:21;14.43;;;13.13;;
4268;SDS011;2148;48.554;7.834;2023-08-21T09:01:46;13.97;;;12.83;;
4268;SDS011;2148;48.554;7.834;2023-08-21T09:04:12;14.00;;;12.80;;
4268;SDS011;2148;48.554;7.834;2023-08-21T09:06:37;12.90;;;11.90;;
4268;SDS011;2148;48.554;7.834;2023-08-21T09:09:03;15.20;;;13.90;;
4268;SDS011;2148;48.554;7.834;2023-08-21T09:11:29;13.73;;;12.63;;
4268;SDS011;2148;48.554;7.834;2023-08-21T09:13:54;12.77;;;11.50;;
4268;SDS011;2148;48.554;7.834;2023-08-21T09:16:21;13.57;;;12.38;;
4268;SDS011;2148;48.554;7.834;2023-08-21T09:18:50;12.30;;;11.32;;
4268;SDS011;2148;48.554;7.834;2023-08-21T09:21:19;14.18;;;12.98;;
4268;SDS011;2148;48.554;7.834;2023-08-21T09:23:45;13.82;;;12.70;;
4268;SDS011;2148;48.554;7.834;2023-08-21T09:26:11;13.75;;;12.65;;
4268;SDS011;2148;48.554;7.834;2023-08-21T09:28:44;14.13;;;12.82;;
4268;SDS011;2148;48.554;7.834;2023-08-21T09:31:10;13.73;;;12.55;;
4268;SDS011;2148;48.554;7.834;2023-08-21T09:33:35;13.25;;;12.05;;
4268;SDS011;2148;48.554;7.834;2023-08-21T09:36:00;14.35;;;13.20;;
4268;SDS011;2148;48.554;7.834;2023-08-21T09:38:29;13.85;;;12.68;;
4268;SDS011;2148;48.554;7.834;2023-08-21T09:40:55;13.00;;;11.90;;
4268;SDS011;2148;48.554;7.834;2023-08-21T09:43:21;13.82;;;12.68;;
4268;SDS011;2148;48.554;7.834;2023-08-21T09:45:48;14.38;;;13.18;;
4268;SDS011;2148;48.554;7.834;2023-08-21T09:48:14;14.23;;;13.05;;
4268;SDS011;2148;48.554;7.834;2023-08-21T09:50:39;13.32;;;12.35;;
4268;SDS011;2148;48.554;7.834;2023-08-21T09:53:08;13.57;;;12.30;;
4268;SDS011;2148;48.554;7.834;2023-08-21T09:55:33;13.93;;;12.77;;
4268;SDS011;2148;48.554;7.834;2023-08-21T09:58:00;14.60;;;13.52;;
4268;SDS011;2148;48.554;7.834;2023-08-21T10:00:30;13.20;;;12.13;;
4268;SDS011;2148;48.554;7.834;2023-08-21T10:02:59;14.60;;;13.43;;
4268;SDS011;2148;48.554;7.834;2023-08-21T10:05:26;14.43;;;13.25;;
4268;SDS011;2148;48.554;7.834;2023-08-21T10:07:52;14.18;;;13.18;;
4268;SDS011;2148;48.554;7.834;2023-08-21T10:10:20;14.70;;;13.57;;
4268;SDS011;2148;48.554;7.834;2023-08-21T10:12:45;14.20;;;13.18;;
4268;SDS011;2148;48.554;7.834;2023-08-21T10:15:11;12.82;;;11.85;;
4268;SDS011;2148;48.554;7.834;2023-08-21T10:17:36;13.60;;;12.65;;
4268;SDS011;2148;48.554;7.834;2023-08-21T10:20:06;15.18;;;13.75;;
4268;SDS011;2148;48.554;7.834;2023-08-21T10:22:36;14.23;;;13.32;;
4268;SDS011;2148;48.554;7.834;2023-08-21T10:27:41;12.98;;;11.98;;
4268;SDS011;2148;48.554;7.834;2023-08-21T10:30:14;13.27;;;12.18;;
4268;SDS011;2148;48.554;7.834;2023-08-21T10:32:50;13.95;;;12.45;;
4268;SDS011;2148;48.554;7.834;2023-08-21T10:35:20;12.63;;;11.57;;
4268;SDS011;2148;48.554;7.834;2023-08-21T10:40:39;13.50;;;12.18;;
4268;SDS011;2148;48.554;7.834;2023-08-21T10:43:36;12.65;;;11.73;;
4268;SDS011;2148;48.554;7.834;2023-08-21T10:46:04;12.80;;;11.88;;
4268;SDS011;2148;48.554;7.834;2023-08-21T10:48:29;10.52;;;9.63;;
4268;SDS011;2148;48.554;7.834;2023-08-21T10:50:55;13.23;;;12.00;;
4268;SDS011;2148;48.554;7.834;2023-08-21T10:53:21;13.43;;;11.48;;
4268;SDS011;2148;48.554;7.834;2023-08-21T10:55:54;12.18;;;11.23;;
4268;SDS011;2148;48.554;7.834;2023-08-21T10:58:19;13.55;;;12.55;;
4268;SDS011;2148;48.554;7.834;2023-08-21T11:00:45;12.38;;;11.20;;
4268;SDS011;2148;48.554;7.834;2023-08-21T11:03:10;11.95;;;10.82;;
4268;SDS011;2148;48.554;7.834;2023-08-21T11:05:35;10.63;;;9.65;;
4268;SDS011;2148;48.554;7.834;2023-08-21T11:08:01;10.98;;;10.13;;
4268;SDS011;2148;48.554;7.834;2023-08-21T11:10:27;11.85;;;10.73;;
4268;SDS011;2148;48.554;7.834;2023-08-21T11:12:55;10.27;;;9.57;;
4268;SDS011;2148;48.554;7.834;2023-08-21T11:15:21;12.25;;;11.07;;
4268;SDS011;2148;48.554;7.834;2023-08-21T11:17:51;11.02;;;10.13;;
4268;SDS011;2148;48.554;7.834;2023-08-21T11:20:18;10.23;;;9.48;;
4268;SDS011;2148;48.554;7.834;2023-08-21T11:22:43;10.27;;;9.25;;
4268;SDS011;2148;48.554;7.834;2023-08-21T11:25:08;9.27;;;8.45;;
4268;SDS011;2148;48.554;7.834;2023-08-21T11:27:33;10.07;;;9.20;;
4268;SDS011;2148;48.554;7.834;2023-08-21T11:29:59;9.80;;;8.88;;
4268;SDS011;2148;48.554;7.834;2023-08-21T11:32:25;9.88;;;8.85;;
4268;SDS011;2148;48.554;7.834;2023-08-21T11:34:55;9.07;;;7.85;;
4268;SDS011;2148;48.554;7.834;2023-08-21T11:37:30;7.88;;;7.25;;
4268;SDS011;2148;48.554;7.834;2023-08-21T11:39:57;8.07;;;7.38;;
4268;SDS011;2148;48.554;7.834;2023-08-21T11:42:30;9.85;;;7.03;;
4268;SDS011;2148;48.554;7.834;2023-08-21T11:44:56;8.18;;;7.47;;
4268;SDS011;2148;48.554;7.834;2023-08-21T11:47:22;7.95;;;7.20;;
4268;SDS011;2148;48.554;7.834;2023-08-21T11:49:48;7.78;;;7.18;;
4268;SDS011;2148;48.554;7.834;2023-08-21T11:52:17;7.32;;;6.63;;
4268;SDS011;2148;48.554;7.834;2023-08-21T11:54:43;10.30;;;9.60;;
4268;SDS011;2148;48.554;7.834;2023-08-21T11:57:13;8.52;;;7.32;;
4268;SDS011;2148;48.554;7.834;2023-08-21T11:59:39;8.23;;;7.47;;
4268;SDS011;2148;48.554;7.834;2023-08-21T12:02:16;7.05;;;6.43;;
4268;SDS011;2148;48.554;7.834;2023-08-21T12:04:43;9.48;;;7.85;;
4268;SDS011;2148;48.554;7.834;2023-08-21T12:07:08;7.28;;;6.78;;
4268;SDS011;2148;48.554;7.834;2023-08-21T12:09:34;7.50;;;6.90;;
4268;SDS011;2148;48.554;7.834;2023-08-21T12:11:59;7.38;;;6.70;;
4268;SDS011;2148;48.554;7.834;2023-08-21T12:14:24;7.65;;;6.97;;
4268;SDS011;2148;48.554;7.834;2023-08-21T12:16:50;7.75;;;6.90;;
4268;SDS011;2148;48.554;7.834;2023-08-21T12:19:15;7.35;;;6.65;;
4268;SDS011;2148;48.554;7.834;2023-08-21T12:21:41;8.23;;;7.20;;
4268;SDS011;2148;48.554;7.834;2023-08-21T12:24:06;7.63;;;7.03;;
4268;SDS011;2148;48.554;7.834;2023-08-21T12:26:32;7.75;;;7.20;;
4268;SDS011;2148;48.554;7.834;2023-08-21T12:28:58;7.65;;;6.80;;
4268;SDS011;2148;48.554;7.834;2023-08-21T12:31:24;7.93;;;7.22;;
4268;SDS011;2148;48.554;7.834;2023-08-21T12:33:49;8.77;;;7.43;;
4268;SDS011;2148;48.554;7.834;2023-08-21T12:36:14;9.00;;;8.20;;
4268;SDS011;2148;48.554;7.834;2023-08-21T12:38:40;8.57;;;7.78;;
4268;SDS011;2148;48.554;7.834;2023-08-21T12:41:05;8.20;;;7.60;;
4268;SDS011;2148;48.554;7.834;2023-08-21T12:43:30;8.68;;;7.80;;
4268;SDS011;2148;48.554;7.834;2023-08-21T12:45:56;9.48;;;8.45;;
4268;SDS011;2148;48.554;7.834;2023-08-21T12:48:21;8.25;;;7.45;;
4268;SDS011;2148;48.554;7.834;2023-08-21T12:50:47;7.93;;;7.30;;
4268;SDS011;2148;48.554;7.834;2023-08-21T12:53:12;8.38;;;7.63;;
4268;SDS011;2148;48.554;7.834;2023-08-21T12:55:37;9.93;;;7.93;;
4268;SDS011;2148;48.554;7.834;2023-08-21T12:58:03;8.65;;;7.80;;
4268;SDS011;2148;48.554;7.834;2023-08-21T13:00:28;9.60;;;7.88;;
4268;SDS011;2148;48.554;7.834;2023-08-21T13:02:53;8.38;;;7.55;;
4268;SDS011;2148;48.554;7.834;2023-08-21T13:05:19;8.32;;;7.53;;
4268;SDS011;2148;48.554;7.834;2023-08-21T13:07:44;7.53;;;6.82;;
4268;SDS011;2148;48.554;7.834;2023-08-21T13:10:09;7.85;;;7.25;;
4268;SDS011;2148;48.554;7.834;2023-08-21T13:12:35;7.75;;;6.97;;
4268;SDS011;2148;48.554;7.834;2023-08-21T13:15:01;8.27;;;7.68;;
4268;SDS011;2148;48.554;7.834;2023-08-21T13:17:26;7.93;;;7.32;;
4268;SDS011;2148;48.554;7.834;2023-08-21T13:19:52;7.78;;;7.10;;
4268;SDS011;2148;48.554;7.834;2023-08-21T13:22:17;7.63;;;7.00;;
4268;SDS011;2148;48.554;7.834;2023-08-21T13:24:42;8.30;;;7.57;;
4268;SDS011;2148;48.554;7.834;2023-08-21T13:27:08;7.68;;;7.05;;
4268;SDS011;2148;48.554;7.834;2023-08-21T13:29:33;7.13;;;6.50;;
4268;SDS011;2148;48.554;7.834;2023-08-21T13:31:58;7.40;;;6.80;;
4268;SDS011;2148;48.554;7.834;2023-08-21T13:34:24;7.78;;;7.10;;
4268;SDS011;2148;48.554;7.834;2023-08-21T13:36:49;8.05;;;7.35;;
4268;SDS011;2148;48.554;7.834;2023-08-21T13:39:15;8.35;;;7.55;;
4268;SDS011;2148;48.554;7.834;2023-08-21T13:41:41;7.97;;;7.38;;
4268;SDS011;2148;48.554;7.834;2023-08-21T13:44:06;7.75;;;6.97;;
4268;SDS011;2148;48.554;7.834;2023-08-21T13:46:33;6.90;;;6.10;;
4268;SDS011;2148;48.554;7.834;2023-08-21T13:48:58;6.88;;;6.20;;
4268;SDS011;2148;48.554;7.834;2023-08-21T13:51:23;7.57;;;6.97;;
4268;SDS011;2148;48.554;7.834;2023-08-21T13:53:49;7.95;;;7.25;;
4268;SDS011;2148;48.554;7.834;2023-08-21T13:56:14;7.45;;;6.78;;
4268;SDS011;2148;48.554;7.834;2023-08-21T13:58:39;7.70;;;6.90;;
4268;SDS011;2148;48.554;7.834;2023-08-21T14:01:04;7.00;;;6.50;;
4268;SDS011;2148;48.554;7.834;2023-08-21T14:03:32;7.05;;;6.35;;
4268;SDS011;2148;48.554;7.834;2023-08-21T14:05:57;7.28;;;6.68;;
4268;SDS011;2148;48.554;7.834;2023-08-21T14:08:22;7.18;;;6.57;;
4268;SDS011;2148;48.554;7.834;2023-08-21T14:10:47;7.43;;;6.45;;
4268;SDS011;2148;48.554;7.834;2023-08-21T14:13:12;6.70;;;6.20;;
4268;SDS011;2148;48.554;7.834;2023-08-21T14:15:38;7.82;;;7.28;;
4268;SDS011;2148;48.554;7.834;2023-08-21T14:18:03;8.27;;;6.72;;
4268;SDS011;2148;48.554;7.834;2023-08-21T14:20:29;7.05;;;6.35;;
4268;SDS011;2148;48.554;7.834;2023-08-21T14:22:55;6.97;;;6.30;;
4268;SDS011;2148;48.554;7.834;2023-08-21T14:25:20;6.78;;;6.18;;
4268;SDS011;2148;48.554;7.834;2023-08-21T14:27:45;6.50;;;5.90;;
4268;SDS011;2148;48.554;7.834;2023-08-21T14:30:11;5.80;;;5.30;;
4268;SDS011;2148;48.554;7.834;2023-08-21T14:32:36;6.75;;;6.25;;
4268;SDS011;2148;48.554;7.834;2023-08-21T14:35:02;6.10;;;5.63;;
4268;SDS011;2148;48.554;7.834;2023-08-21T14:37:28;6.28;;;5.35;;
4268;SDS011;2148;48.554;7.834;2023-08-21T14:39:54;5.70;;;5.30;;
4268;SDS011;2148;48.554;7.834;2023-08-21T14:42:19;6.03;;;5.38;;
4268;SDS011;2148;48.554;7.834;2023-08-21T14:44:44;6.00;;;5.38;;
4268;SDS011;2148;48.554;7.834;2023-08-21T14:47:10;6.35;;;5.85;;
4268;SDS011;2148;48.554;7.834;2023-08-21T14:49:35;6.40;;;6.00;;
4268;SDS011;2148;48.554;7.834;2023-08-21T14:52:00;6.18;;;5.78;;
4268;SDS011;2148;48.554;7.834;2023-08-21T14:54:25;14.98;;;6.78;;
4268;SDS011;2148;48.554;7.834;2023-08-21T14:56:51;6.90;;;6.32;;
4268;SDS011;2148;48.554;7.834;2023-08-21T14:59:16;6.65;;;6.18;;